sensor_id;sensor_type;location;lat;lon;timestamp;P1;durP1;ratioP1;P2;durP2;ratioP2
54823;SDS011;40724;53.196;5.980;2023-12-28T00:01:36;5.53;;;3.35;;
54823;SDS011;40724;53.196;5.980;2023-12-28T00:04:03;5.93;;;2.88;;
54823;SDS011;40724;53.196;5.980;2023-12-28T00:06:29;7.55;;;3.35;;
54823;SDS011;40724;53.196;5.980;2023-12-28T00:08:55;9.45;;;3.45;;
54823;SDS011;40724;53.196;5.980;2023-12-28T00:11:21;6.15;;;3.03;;
54823;SDS011;40724;53.196;5.980;2023-12-28T00:13:48;6.70;;;3.03;;
54823;SDS011;40724;53.196;5.980;2023-12-28T00:16:14;4.53;;;3.47;;
54823;SDS011;40724;53.196;5.980;2023-12-28T00:18:40;10.23;;;3.47;;
54823;SDS011;40724;53.196;5.980;2023-12-28T00:21:06;4.95;;;3.28;;
54823;SDS011;40724;53.196;5.980;2023-12-28T00:23:32;4.78;;;2.92;;
54823;SDS011;40724;53.196;5.980;2023-12-28T00:25:59;5.85;;;3.17;;
54823;SDS011;40724;53.196;5.980;2023-12-28T00:28:25;7.53;;;3.25;;
54823;SDS011;40724;53.196;5.980;2023-12-28T00:30:51;5.32;;;3.78;;
54823;SDS011;40724;53.196;5.980;2023-12-28T00:33:17;6.25;;;3.58;;
54823;SDS011;40724;53.196;5.980;2023-12-28T00:35:43;5.43;;;3.35;;
54823;SDS011;40724;53.196;5.980;2023-12-28T00:38:09;10.77;;;3.83;;
54823;SDS011;40724;53.196;5.980;2023-12-28T00:40:35;11.35;;;3.38;;
54823;SDS011;40724;53.196;5.980;2023-12-28T00:43:01;7.15;;;3.97;;
54823;SDS011;40724;53.196;5.980;2023-12-28T00:45:27;6.97;;;3.35;;
54823;SDS011;40724;53.196;5.980;2023-12-28T00:47:54;15.70;;;5.78;;
54823;SDS011;40724;53.196;5.980;2023-12-28T00:50:22;12.23;;;5.10;;
54823;SDS011;40724;53.196;5.980;2023-12-28T00:52:48;10.82;;;3.92;;
54823;SDS011;40724;53.196;5.980;2023-12-28T00:55:14;16.02;;;4.03;;
54823;SDS011;40724;53.196;5.980;2023-12-28T00:57:40;11.02;;;5.22;;
54823;SDS011;40724;53.196;5.980;2023-12-28T01:00:06;15.63;;;5.15;;
54823;SDS011;40724;53.196;5.980;2023-12-28T01:02:32;10.23;;;3.58;;
54823;SDS011;40724;53.196;5.980;2023-12-28T01:04:59;14.73;;;5.28;;
54823;SDS011;40724;53.196;5.980;2023-12-28T01:07:25;9.88;;;4.60;;
54823;SDS011;40724;53.196;5.980;2023-12-28T01:09:51;14.20;;;4.88;;
54823;SDS011;40724;53.196;5.980;2023-12-28T01:12:17;19.20;;;5.00;;
54823;SDS011;40724;53.196;5.980;2023-12-28T01:14:43;12.60;;;4.25;;
54823;SDS011;40724;53.196;5.980;2023-12-28T01:17:09;12.60;;;4.35;;
54823;SDS011;40724;53.196;5.980;2023-12-28T01:19:35;14.55;;;5.90;;
54823;SDS011;40724;53.196;5.980;2023-12-28T01:22:01;17.67;;;4.70;;
54823;SDS011;40724;53.196;5.980;2023-12-28T01:24:27;18.30;;;5.35;;
54823;SDS011;40724;53.196;5.980;2023-12-28T01:26:54;14.85;;;4.40;;
54823;SDS011;40724;53.196;5.980;2023-12-28T01:29:20;16.17;;;4.25;;
54823;SDS011;40724;53.196;5.980;2023-12-28T01:31:46;17.10;;;5.20;;
54823;SDS011;40724;53.196;5.980;2023-12-28T01:34:12;10.68;;;4.70;;
54823;SDS011;40724;53.196;5.980;2023-12-28T01:36:38;17.10;;;5.13;;
54823;SDS011;40724;53.196;5.980;2023-12-28T01:39:08;18.15;;;6.25;;
54823;SDS011;40724;53.196;5.980;2023-12-28T01:41:36;17.55;;;5.78;;
54823;SDS011;40724;53.196;5.980;2023-12-28T01:44:02;12.63;;;4.68;;
54823;SDS011;40724;53.196;5.980;2023-12-28T01:46:28;18.27;;;5.55;;
54823;SDS011;40724;53.196;5.980;2023-12-28T01:48:54;11.00;;;4.40;;
54823;SDS011;40724;53.196;5.980;2023-12-28T01:51:21;18.85;;;6.38;;
54823;SDS011;40724;53.196;5.980;2023-12-28T01:53:49;13.63;;;4.72;;
54823;SDS011;40724;53.196;5.980;2023-12-28T01:56:18;14.38;;;4.90;;
54823;SDS011;40724;53.196;5.980;2023-12-28T01:58:44;22.23;;;6.75;;
54823;SDS011;40724;53.196;5.980;2023-12-28T02:01:10;15.90;;;5.63;;
54823;SDS011;40724;53.196;5.980;2023-12-28T02:03:37;11.27;;;5.13;;
54823;SDS011;40724;53.196;5.980;2023-12-28T02:06:03;19.25;;;4.82;;
54823;SDS011;40724;53.196;5.980;2023-12-28T02:08:30;20.75;;;6.53;;
54823;SDS011;40724;53.196;5.980;2023-12-28T02:10:56;18.27;;;4.88;;
54823;SDS011;40724;53.196;5.980;2023-12-28T02:13:23;12.15;;;4.90;;
54823;SDS011;40724;53.196;5.980;2023-12-28T02:15:51;15.68;;;5.43;;
54823;SDS011;40724;53.196;5.980;2023-12-28T02:18:20;15.82;;;6.55;;
54823;SDS011;40724;53.196;5.980;2023-12-28T02:20:47;13.63;;;5.10;;
54823;SDS011;40724;53.196;5.980;2023-12-28T02:23:15;21.30;;;6.20;;
54823;SDS011;40724;53.196;5.980;2023-12-28T02:25:41;19.05;;;5.63;;
54823;SDS011;40724;53.196;5.980;2023-12-28T02:28:07;14.77;;;4.70;;
54823;SDS011;40724;53.196;5.980;2023-12-28T02:30:33;13.15;;;5.72;;
54823;SDS011;40724;53.196;5.980;2023-12-28T02:38:14;14.65;;;5.60;;
54823;SDS011;40724;53.196;5.980;2023-12-28T02:40:41;17.80;;;6.10;;
54823;SDS011;40724;53.196;5.980;2023-12-28T02:43:09;12.32;;;4.85;;
54823;SDS011;40724;53.196;5.980;2023-12-28T02:45:35;16.50;;;6.05;;
54823;SDS011;40724;53.196;5.980;2023-12-28T02:48:02;14.50;;;5.20;;
54823;SDS011;40724;53.196;5.980;2023-12-28T02:50:28;19.90;;;4.47;;
54823;SDS011;40724;53.196;5.980;2023-12-28T02:52:57;13.13;;;4.40;;
54823;SDS011;40724;53.196;5.980;2023-12-28T02:55:23;10.82;;;4.05;;
54823;SDS011;40724;53.196;5.980;2023-12-28T02:57:50;12.25;;;4.25;;
54823;SDS011;40724;53.196;5.980;2023-12-28T03:00:16;18.45;;;4.20;;
54823;SDS011;40724;53.196;5.980;2023-12-28T03:02:42;14.15;;;4.75;;
54823;SDS011;40724;53.196;5.980;2023-12-28T03:05:09;8.10;;;3.85;;
54823;SDS011;40724;53.196;5.980;2023-12-28T03:07:35;10.63;;;4.38;;
54823;SDS011;40724;53.196;5.980;2023-12-28T03:10:02;10.77;;;3.90;;
54823;SDS011;40724;53.196;5.980;2023-12-28T03:12:29;15.52;;;4.38;;
54823;SDS011;40724;53.196;5.980;2023-12-28T03:14:56;10.07;;;3.72;;
54823;SDS011;40724;53.196;5.980;2023-12-28T03:17:22;11.75;;;5.00;;
54823;SDS011;40724;53.196;5.980;2023-12-28T03:19:48;13.75;;;3.90;;
54823;SDS011;40724;53.196;5.980;2023-12-28T03:22:14;15.23;;;4.22;;
54823;SDS011;40724;53.196;5.980;2023-12-28T03:24:42;13.70;;;4.28;;
54823;SDS011;40724;53.196;5.980;2023-12-28T03:27:08;10.07;;;3.75;;
54823;SDS011;40724;53.196;5.980;2023-12-28T03:29:35;11.07;;;4.03;;
54823;SDS011;40724;53.196;5.980;2023-12-28T03:32:01;8.73;;;3.40;;
54823;SDS011;40724;53.196;5.980;2023-12-28T03:34:27;8.82;;;3.88;;
54823;SDS011;40724;53.196;5.980;2023-12-28T03:36:55;12.88;;;3.90;;
54823;SDS011;40724;53.196;5.980;2023-12-28T03:39:22;14.70;;;4.82;;
54823;SDS011;40724;53.196;5.980;2023-12-28T03:41:48;8.68;;;3.95;;
54823;SDS011;40724;53.196;5.980;2023-12-28T03:44:14;16.98;;;3.35;;
54823;SDS011;40724;53.196;5.980;2023-12-28T03:46:40;18.52;;;5.40;;
54823;SDS011;40724;53.196;5.980;2023-12-28T03:49:07;9.93;;;3.63;;
54823;SDS011;40724;53.196;5.980;2023-12-28T03:51:33;8.93;;;3.08;;
54823;SDS011;40724;53.196;5.980;2023-12-28T03:53:59;12.50;;;3.67;;
54823;SDS011;40724;53.196;5.980;2023-12-28T03:56:26;11.32;;;3.55;;
54823;SDS011;40724;53.196;5.980;2023-12-28T03:58:52;8.45;;;3.90;;
54823;SDS011;40724;53.196;5.980;2023-12-28T04:01:22;5.95;;;3.42;;
54823;SDS011;40724;53.196;5.980;2023-12-28T04:03:48;8.90;;;3.55;;
54823;SDS011;40724;53.196;5.980;2023-12-28T04:06:14;8.88;;;3.00;;
54823;SDS011;40724;53.196;5.980;2023-12-28T04:08:41;8.65;;;3.08;;
54823;SDS011;40724;53.196;5.980;2023-12-28T04:11:08;9.93;;;3.13;;
54823;SDS011;40724;53.196;5.980;2023-12-28T04:13:34;12.80;;;3.85;;
54823;SDS011;40724;53.196;5.980;2023-12-28T04:16:01;11.95;;;3.85;;
54823;SDS011;40724;53.196;5.980;2023-12-28T04:18:27;10.82;;;3.10;;
54823;SDS011;40724;53.196;5.980;2023-12-28T04:20:53;9.38;;;3.92;;
54823;SDS011;40724;53.196;5.980;2023-12-28T04:23:19;8.02;;;4.15;;
54823;SDS011;40724;53.196;5.980;2023-12-28T04:25:45;14.77;;;4.45;;
54823;SDS011;40724;53.196;5.980;2023-12-28T04:28:12;9.35;;;3.38;;
54823;SDS011;40724;53.196;5.980;2023-12-28T04:30:38;8.60;;;3.60;;
54823;SDS011;40724;53.196;5.980;2023-12-28T04:33:04;10.77;;;4.30;;
54823;SDS011;40724;53.196;5.980;2023-12-28T04:35:31;10.18;;;3.83;;
54823;SDS011;40724;53.196;5.980;2023-12-28T04:37:57;13.90;;;3.50;;
54823;SDS011;40724;53.196;5.980;2023-12-28T04:40:23;12.88;;;4.25;;
54823;SDS011;40724;53.196;5.980;2023-12-28T04:42:50;10.02;;;3.40;;
54823;SDS011;40724;53.196;5.980;2023-12-28T04:45:16;12.85;;;4.20;;
54823;SDS011;40724;53.196;5.980;2023-12-28T04:47:42;18.25;;;3.90;;
54823;SDS011;40724;53.196;5.980;2023-12-28T04:50:08;13.25;;;5.05;;
54823;SDS011;40724;53.196;5.980;2023-12-28T04:52:34;10.48;;;3.75;;
54823;SDS011;40724;53.196;5.980;2023-12-28T04:55:00;11.88;;;5.00;;
54823;SDS011;40724;53.196;5.980;2023-12-28T04:57:26;8.15;;;3.90;;
54823;SDS011;40724;53.196;5.980;2023-12-28T04:59:53;8.55;;;4.57;;
54823;SDS011;40724;53.196;5.980;2023-12-28T05:02:20;11.57;;;4.53;;
54823;SDS011;40724;53.196;5.980;2023-12-28T05:04:46;9.73;;;3.63;;
54823;SDS011;40724;53.196;5.980;2023-12-28T05:07:12;10.40;;;3.90;;
54823;SDS011;40724;53.196;5.980;2023-12-28T05:09:38;13.00;;;4.05;;
54823;SDS011;40724;53.196;5.980;2023-12-28T05:12:04;13.27;;;4.05;;
54823;SDS011;40724;53.196;5.980;2023-12-28T05:14:30;13.40;;;5.22;;
54823;SDS011;40724;53.196;5.980;2023-12-28T05:16:56;14.57;;;4.53;;
54823;SDS011;40724;53.196;5.980;2023-12-28T05:19:22;13.63;;;4.95;;
54823;SDS011;40724;53.196;5.980;2023-12-28T05:21:48;15.68;;;4.93;;
54823;SDS011;40724;53.196;5.980;2023-12-28T05:24:15;15.02;;;4.88;;
54823;SDS011;40724;53.196;5.980;2023-12-28T05:26:41;15.52;;;4.80;;
54823;SDS011;40724;53.196;5.980;2023-12-28T05:29:07;19.58;;;5.22;;
54823;SDS011;40724;53.196;5.980;2023-12-28T05:31:33;18.75;;;4.95;;
54823;SDS011;40724;53.196;5.980;2023-12-28T05:33:59;14.95;;;5.07;;
54823;SDS011;40724;53.196;5.980;2023-12-28T05:36:25;15.68;;;4.95;;
54823;SDS011;40724;53.196;5.980;2023-12-28T05:38:51;13.02;;;5.53;;
54823;SDS011;40724;53.196;5.980;2023-12-28T05:41:18;16.65;;;5.03;;
54823;SDS011;40724;53.196;5.980;2023-12-28T05:43:44;17.65;;;6.28;;
54823;SDS011;40724;53.196;5.980;2023-12-28T05:46:10;20.80;;;5.43;;
54823;SDS011;40724;53.196;5.980;2023-12-28T05:48:36;17.58;;;5.25;;
54823;SDS011;40724;53.196;5.980;2023-12-28T05:51:02;16.52;;;5.38;;
54823;SDS011;40724;53.196;5.980;2023-12-28T05:53:28;17.65;;;6.00;;
54823;SDS011;40724;53.196;5.980;2023-12-28T05:55:54;15.73;;;5.13;;
54823;SDS011;40724;53.196;5.980;2023-12-28T05:58:20;19.10;;;6.72;;
54823;SDS011;40724;53.196;5.980;2023-12-28T06:00:47;15.68;;;6.85;;
54823;SDS011;40724;53.196;5.980;2023-12-28T06:03:13;16.38;;;5.28;;
54823;SDS011;40724;53.196;5.980;2023-12-28T06:05:39;21.75;;;5.93;;
54823;SDS011;40724;53.196;5.980;2023-12-28T06:08:05;23.42;;;6.05;;
54823;SDS011;40724;53.196;5.980;2023-12-28T06:10:32;21.33;;;5.40;;
54823;SDS011;40724;53.196;5.980;2023-12-28T06:12:58;11.13;;;5.85;;
54823;SDS011;40724;53.196;5.980;2023-12-28T06:15:24;18.05;;;5.18;;
54823;SDS011;40724;53.196;5.980;2023-12-28T06:17:50;18.75;;;6.13;;
54823;SDS011;40724;53.196;5.980;2023-12-28T06:20:17;18.23;;;4.75;;
54823;SDS011;40724;53.196;5.980;2023-12-28T06:22:44;10.50;;;3.65;;
54823;SDS011;40724;53.196;5.980;2023-12-28T06:25:13;13.90;;;5.57;;
54823;SDS011;40724;53.196;5.980;2023-12-28T06:27:40;14.82;;;4.90;;
54823;SDS011;40724;53.196;5.980;2023-12-28T06:30:06;13.75;;;5.18;;
54823;SDS011;40724;53.196;5.980;2023-12-28T06:32:32;14.25;;;4.45;;
54823;SDS011;40724;53.196;5.980;2023-12-28T06:34:58;12.02;;;4.78;;
54823;SDS011;40724;53.196;5.980;2023-12-28T06:37:24;24.00;;;5.10;;
54823;SDS011;40724;53.196;5.980;2023-12-28T06:39:51;17.58;;;6.30;;
54823;SDS011;40724;53.196;5.980;2023-12-28T06:42:17;17.27;;;5.32;;
54823;SDS011;40724;53.196;5.980;2023-12-28T06:44:43;16.20;;;6.35;;
54823;SDS011;40724;53.196;5.980;2023-12-28T06:47:09;20.17;;;5.82;;
54823;SDS011;40724;53.196;5.980;2023-12-28T06:49:35;24.60;;;6.60;;
54823;SDS011;40724;53.196;5.980;2023-12-28T06:52:01;17.77;;;7.03;;
54823;SDS011;40724;53.196;5.980;2023-12-28T06:54:27;25.27;;;6.95;;
54823;SDS011;40724;53.196;5.980;2023-12-28T06:56:53;25.30;;;7.65;;
54823;SDS011;40724;53.196;5.980;2023-12-28T06:59:19;26.35;;;7.85;;
54823;SDS011;40724;53.196;5.980;2023-12-28T07:01:46;26.92;;;7.20;;
54823;SDS011;40724;53.196;5.980;2023-12-28T07:04:13;32.92;;;8.73;;
54823;SDS011;40724;53.196;5.980;2023-12-28T07:06:39;20.73;;;6.97;;
54823;SDS011;40724;53.196;5.980;2023-12-28T07:09:05;29.98;;;8.23;;
54823;SDS011;40724;53.196;5.980;2023-12-28T07:11:31;16.98;;;6.05;;
54823;SDS011;40724;53.196;5.980;2023-12-28T07:13:58;26.67;;;6.07;;
54823;SDS011;40724;53.196;5.980;2023-12-28T07:16:24;22.50;;;8.60;;
54823;SDS011;40724;53.196;5.980;2023-12-28T07:18:51;24.13;;;7.15;;
54823;SDS011;40724;53.196;5.980;2023-12-28T07:21:17;21.70;;;7.95;;
54823;SDS011;40724;53.196;5.980;2023-12-28T07:23:44;24.20;;;8.30;;
54823;SDS011;40724;53.196;5.980;2023-12-28T07:26:14;22.60;;;7.18;;
54823;SDS011;40724;53.196;5.980;2023-12-28T07:28:40;22.00;;;7.80;;
54823;SDS011;40724;53.196;5.980;2023-12-28T07:31:21;21.42;;;6.97;;
54823;SDS011;40724;53.196;5.980;2023-12-28T07:33:47;21.65;;;8.38;;
54823;SDS011;40724;53.196;5.980;2023-12-28T07:36:14;24.00;;;7.57;;
54823;SDS011;40724;53.196;5.980;2023-12-28T07:38:40;21.58;;;6.38;;
54823;SDS011;40724;53.196;5.980;2023-12-28T07:41:06;28.08;;;8.82;;
54823;SDS011;40724;53.196;5.980;2023-12-28T07:43:33;28.27;;;7.70;;
54823;SDS011;40724;53.196;5.980;2023-12-28T07:45:59;30.73;;;8.65;;
54823;SDS011;40724;53.196;5.980;2023-12-28T07:48:25;25.02;;;8.57;;
54823;SDS011;40724;53.196;5.980;2023-12-28T07:50:51;32.70;;;9.77;;
54823;SDS011;40724;53.196;5.980;2023-12-28T07:53:17;28.10;;;7.78;;
54823;SDS011;40724;53.196;5.980;2023-12-28T07:55:43;27.38;;;9.02;;
54823;SDS011;40724;53.196;5.980;2023-12-28T07:58:09;25.00;;;9.23;;
54823;SDS011;40724;53.196;5.980;2023-12-28T08:00:35;23.45;;;7.72;;
54823;SDS011;40724;53.196;5.980;2023-12-28T08:03:01;29.55;;;8.48;;
54823;SDS011;40724;53.196;5.980;2023-12-28T08:05:27;26.48;;;8.93;;
54823;SDS011;40724;53.196;5.980;2023-12-28T08:07:54;27.50;;;8.77;;
54823;SDS011;40724;53.196;5.980;2023-12-28T08:10:20;28.42;;;9.02;;
54823;SDS011;40724;53.196;5.980;2023-12-28T08:12:46;35.50;;;9.40;;
54823;SDS011;40724;53.196;5.980;2023-12-28T08:15:12;21.67;;;7.22;;
54823;SDS011;40724;53.196;5.980;2023-12-28T08:17:38;25.55;;;9.15;;
54823;SDS011;40724;53.196;5.980;2023-12-28T08:20:05;37.83;;;8.48;;
54823;SDS011;40724;53.196;5.980;2023-12-28T08:22:31;25.77;;;8.43;;
54823;SDS011;40724;53.196;5.980;2023-12-28T08:24:58;22.83;;;8.68;;
54823;SDS011;40724;53.196;5.980;2023-12-28T08:27:24;29.27;;;9.00;;
54823;SDS011;40724;53.196;5.980;2023-12-28T08:29:50;26.02;;;9.32;;
54823;SDS011;40724;53.196;5.980;2023-12-28T08:32:17;27.88;;;9.93;;
54823;SDS011;40724;53.196;5.980;2023-12-28T08:34:43;35.28;;;10.68;;
54823;SDS011;40724;53.196;5.980;2023-12-28T08:37:10;28.60;;;9.75;;
54823;SDS011;40724;53.196;5.980;2023-12-28T08:39:36;28.42;;;9.63;;
54823;SDS011;40724;53.196;5.980;2023-12-28T08:42:02;34.50;;;11.15;;
54823;SDS011;40724;53.196;5.980;2023-12-28T08:44:28;26.90;;;8.85;;
54823;SDS011;40724;53.196;5.980;2023-12-28T08:46:55;36.33;;;10.25;;
54823;SDS011;40724;53.196;5.980;2023-12-28T08:49:21;31.45;;;9.35;;
54823;SDS011;40724;53.196;5.980;2023-12-28T08:51:47;31.20;;;10.48;;
54823;SDS011;40724;53.196;5.980;2023-12-28T08:54:13;32.90;;;10.10;;
54823;SDS011;40724;53.196;5.980;2023-12-28T08:56:39;29.70;;;9.35;;
54823;SDS011;40724;53.196;5.980;2023-12-28T08:59:06;19.13;;;9.23;;
54823;SDS011;40724;53.196;5.980;2023-12-28T09:01:32;23.50;;;9.02;;
54823;SDS011;40724;53.196;5.980;2023-12-28T09:03:59;26.13;;;9.05;;
54823;SDS011;40724;53.196;5.980;2023-12-28T09:06:26;25.45;;;8.73;;
54823;SDS011;40724;53.196;5.980;2023-12-28T09:08:52;46.90;;;9.88;;
54823;SDS011;40724;53.196;5.980;2023-12-28T09:11:19;29.98;;;9.88;;
54823;SDS011;40724;53.196;5.980;2023-12-28T09:13:45;38.10;;;9.98;;
54823;SDS011;40724;53.196;5.980;2023-12-28T09:16:12;32.60;;;9.40;;
54823;SDS011;40724;53.196;5.980;2023-12-28T09:18:38;30.23;;;8.20;;
54823;SDS011;40724;53.196;5.980;2023-12-28T09:21:05;27.00;;;8.75;;
54823;SDS011;40724;53.196;5.980;2023-12-28T09:23:31;23.75;;;8.43;;
54823;SDS011;40724;53.196;5.980;2023-12-28T09:25:58;31.45;;;9.82;;
54823;SDS011;40724;53.196;5.980;2023-12-28T09:28:24;35.72;;;10.25;;
54823;SDS011;40724;53.196;5.980;2023-12-28T09:30:50;24.92;;;9.07;;
54823;SDS011;40724;53.196;5.980;2023-12-28T09:33:16;27.35;;;8.27;;
54823;SDS011;40724;53.196;5.980;2023-12-28T09:35:43;24.10;;;8.20;;
54823;SDS011;40724;53.196;5.980;2023-12-28T09:38:09;23.42;;;9.23;;
54823;SDS011;40724;53.196;5.980;2023-12-28T09:40:35;21.50;;;7.25;;
54823;SDS011;40724;53.196;5.980;2023-12-28T09:45:33;31.00;;;8.03;;
54823;SDS011;40724;53.196;5.980;2023-12-28T09:48:00;30.65;;;9.43;;
54823;SDS011;40724;53.196;5.980;2023-12-28T09:50:28;24.52;;;9.00;;
54823;SDS011;40724;53.196;5.980;2023-12-28T09:52:54;39.25;;;8.30;;
54823;SDS011;40724;53.196;5.980;2023-12-28T09:55:21;23.02;;;7.70;;
54823;SDS011;40724;53.196;5.980;2023-12-28T09:57:49;23.33;;;9.00;;
54823;SDS011;40724;53.196;5.980;2023-12-28T10:00:16;27.80;;;8.80;;
54823;SDS011;40724;53.196;5.980;2023-12-28T10:02:43;31.73;;;8.25;;
54823;SDS011;40724;53.196;5.980;2023-12-28T10:05:16;26.35;;;9.70;;
54823;SDS011;40724;53.196;5.980;2023-12-28T10:07:43;25.05;;;7.40;;
54823;SDS011;40724;53.196;5.980;2023-12-28T10:10:09;21.80;;;8.50;;
54823;SDS011;40724;53.196;5.980;2023-12-28T10:12:36;33.55;;;8.02;;
54823;SDS011;40724;53.196;5.980;2023-12-28T10:15:05;29.60;;;8.43;;
54823;SDS011;40724;53.196;5.980;2023-12-28T10:17:32;25.45;;;8.70;;
54823;SDS011;40724;53.196;5.980;2023-12-28T10:20:03;22.60;;;8.23;;
54823;SDS011;40724;53.196;5.980;2023-12-28T10:22:31;23.30;;;7.75;;
54823;SDS011;40724;53.196;5.980;2023-12-28T10:24:58;21.08;;;8.68;;
54823;SDS011;40724;53.196;5.980;2023-12-28T10:27:25;22.50;;;6.70;;
54823;SDS011;40724;53.196;5.980;2023-12-28T10:29:53;22.50;;;6.82;;
54823;SDS011;40724;53.196;5.980;2023-12-28T10:32:20;22.75;;;7.80;;
54823;SDS011;40724;53.196;5.980;2023-12-28T10:34:46;29.70;;;8.80;;
54823;SDS011;40724;53.196;5.980;2023-12-28T10:37:12;18.92;;;7.15;;
54823;SDS011;40724;53.196;5.980;2023-12-28T10:39:39;31.13;;;8.70;;
54823;SDS011;40724;53.196;5.980;2023-12-28T10:42:09;31.88;;;8.45;;
54823;SDS011;40724;53.196;5.980;2023-12-28T10:44:36;17.55;;;6.07;;
54823;SDS011;40724;53.196;5.980;2023-12-28T10:47:07;24.20;;;7.78;;
54823;SDS011;40724;53.196;5.980;2023-12-28T10:49:36;28.55;;;8.73;;
54823;SDS011;40724;53.196;5.980;2023-12-28T10:52:04;24.55;;;8.57;;
54823;SDS011;40724;53.196;5.980;2023-12-28T10:54:47;25.85;;;7.88;;
54823;SDS011;40724;53.196;5.980;2023-12-28T11:02:18;18.85;;;8.52;;
54823;SDS011;40724;53.196;5.980;2023-12-28T11:04:50;24.15;;;7.95;;
54823;SDS011;40724;53.196;5.980;2023-12-28T11:07:18;21.23;;;7.07;;
54823;SDS011;40724;53.196;5.980;2023-12-28T11:09:44;22.40;;;7.22;;
54823;SDS011;40724;53.196;5.980;2023-12-28T11:12:11;21.58;;;7.15;;
54823;SDS011;40724;53.196;5.980;2023-12-28T11:14:41;26.23;;;7.72;;
54823;SDS011;40724;53.196;5.980;2023-12-28T11:17:09;24.58;;;6.82;;
54823;SDS011;40724;53.196;5.980;2023-12-28T11:19:36;19.40;;;7.05;;
54823;SDS011;40724;53.196;5.980;2023-12-28T11:22:02;25.40;;;7.47;;
54823;SDS011;40724;53.196;5.980;2023-12-28T11:24:29;24.77;;;7.95;;
54823;SDS011;40724;53.196;5.980;2023-12-28T11:26:56;27.33;;;8.95;;
54823;SDS011;40724;53.196;5.980;2023-12-28T11:29:23;26.10;;;8.45;;
54823;SDS011;40724;53.196;5.980;2023-12-28T11:31:53;26.70;;;7.63;;
54823;SDS011;40724;53.196;5.980;2023-12-28T11:34:19;22.70;;;7.13;;
54823;SDS011;40724;53.196;5.980;2023-12-28T11:36:51;27.65;;;8.73;;
54823;SDS011;40724;53.196;5.980;2023-12-28T11:39:33;21.10;;;7.03;;
54823;SDS011;40724;53.196;5.980;2023-12-28T11:42:00;20.80;;;7.40;;
54823;SDS011;40724;53.196;5.980;2023-12-28T11:44:30;23.38;;;7.28;;
54823;SDS011;40724;53.196;5.980;2023-12-28T11:46:56;21.58;;;7.88;;
54823;SDS011;40724;53.196;5.980;2023-12-28T11:49:25;20.65;;;8.07;;
54823;SDS011;40724;53.196;5.980;2023-12-28T11:51:57;21.45;;;7.97;;
54823;SDS011;40724;53.196;5.980;2023-12-28T11:54:24;32.22;;;8.85;;
54823;SDS011;40724;53.196;5.980;2023-12-28T11:56:51;34.25;;;9.43;;
54823;SDS011;40724;53.196;5.980;2023-12-28T11:59:20;19.08;;;6.85;;
54823;SDS011;40724;53.196;5.980;2023-12-28T12:01:50;26.92;;;8.00;;
54823;SDS011;40724;53.196;5.980;2023-12-28T12:04:17;24.70;;;7.72;;
54823;SDS011;40724;53.196;5.980;2023-12-28T12:06:44;24.30;;;7.50;;
54823;SDS011;40724;53.196;5.980;2023-12-28T12:09:12;21.70;;;8.30;;
54823;SDS011;40724;53.196;5.980;2023-12-28T12:11:38;27.02;;;8.60;;
54823;SDS011;40724;53.196;5.980;2023-12-28T12:14:08;22.35;;;7.72;;
54823;SDS011;40724;53.196;5.980;2023-12-28T12:16:34;36.75;;;8.77;;
54823;SDS011;40724;53.196;5.980;2023-12-28T12:19:01;23.45;;;7.38;;
54823;SDS011;40724;53.196;5.980;2023-12-28T12:21:27;21.42;;;7.63;;
54823;SDS011;40724;53.196;5.980;2023-12-28T12:23:54;17.88;;;7.10;;
54823;SDS011;40724;53.196;5.980;2023-12-28T12:26:20;17.50;;;7.65;;
54823;SDS011;40724;53.196;5.980;2023-12-28T12:28:46;29.15;;;9.60;;
54823;SDS011;40724;53.196;5.980;2023-12-28T12:31:13;31.52;;;9.27;;
54823;SDS011;40724;53.196;5.980;2023-12-28T12:33:40;26.70;;;8.13;;
54823;SDS011;40724;53.196;5.980;2023-12-28T12:36:07;22.65;;;7.05;;
54823;SDS011;40724;53.196;5.980;2023-12-28T12:38:33;21.60;;;8.80;;
54823;SDS011;40724;53.196;5.980;2023-12-28T12:41:00;22.13;;;9.25;;
54823;SDS011;40724;53.196;5.980;2023-12-28T12:43:26;26.20;;;7.78;;
54823;SDS011;40724;53.196;5.980;2023-12-28T12:45:53;25.50;;;7.82;;
54823;SDS011;40724;53.196;5.980;2023-12-28T12:48:19;24.27;;;7.97;;
54823;SDS011;40724;53.196;5.980;2023-12-28T12:50:45;21.10;;;7.45;;
54823;SDS011;40724;53.196;5.980;2023-12-28T12:53:11;23.17;;;7.30;;
54823;SDS011;40724;53.196;5.980;2023-12-28T12:55:37;23.70;;;8.15;;
54823;SDS011;40724;53.196;5.980;2023-12-28T12:58:11;18.90;;;6.43;;
54823;SDS011;40724;53.196;5.980;2023-12-28T13:00:41;26.58;;;6.88;;
54823;SDS011;40724;53.196;5.980;2023-12-28T13:03:07;28.50;;;7.20;;
54823;SDS011;40724;53.196;5.980;2023-12-28T13:05:36;30.45;;;7.72;;
54823;SDS011;40724;53.196;5.980;2023-12-28T13:08:03;30.42;;;8.02;;
54823;SDS011;40724;53.196;5.980;2023-12-28T13:10:30;20.92;;;7.97;;
54823;SDS011;40724;53.196;5.980;2023-12-28T13:12:56;20.92;;;8.23;;
54823;SDS011;40724;53.196;5.980;2023-12-28T13:15:23;20.48;;;7.38;;
54823;SDS011;40724;53.196;5.980;2023-12-28T13:17:49;24.33;;;6.40;;
54823;SDS011;40724;53.196;5.980;2023-12-28T13:20:15;24.42;;;6.80;;
54823;SDS011;40724;53.196;5.980;2023-12-28T13:22:42;20.05;;;7.05;;
54823;SDS011;40724;53.196;5.980;2023-12-28T13:25:08;23.40;;;9.13;;
54823;SDS011;40724;53.196;5.980;2023-12-28T13:27:34;31.40;;;8.27;;
54823;SDS011;40724;53.196;5.980;2023-12-28T13:30:00;25.88;;;8.50;;
54823;SDS011;40724;53.196;5.980;2023-12-28T13:32:26;23.60;;;9.63;;
54823;SDS011;40724;53.196;5.980;2023-12-28T13:34:52;17.30;;;7.15;;
54823;SDS011;40724;53.196;5.980;2023-12-28T13:37:20;18.27;;;7.10;;
54823;SDS011;40724;53.196;5.980;2023-12-28T13:39:46;22.77;;;9.18;;
54823;SDS011;40724;53.196;5.980;2023-12-28T13:42:12;23.50;;;7.40;;
54823;SDS011;40724;53.196;5.980;2023-12-28T13:44:38;23.60;;;8.10;;
54823;SDS011;40724;53.196;5.980;2023-12-28T13:47:04;23.00;;;6.68;;
54823;SDS011;40724;53.196;5.980;2023-12-28T13:49:31;33.05;;;8.65;;
54823;SDS011;40724;53.196;5.980;2023-12-28T13:51:57;25.50;;;6.93;;
54823;SDS011;40724;53.196;5.980;2023-12-28T13:54:23;22.25;;;7.28;;
54823;SDS011;40724;53.196;5.980;2023-12-28T13:56:49;32.83;;;8.00;;
54823;SDS011;40724;53.196;5.980;2023-12-28T13:59:22;22.85;;;7.97;;
54823;SDS011;40724;53.196;5.980;2023-12-28T14:01:48;21.33;;;7.75;;
54823;SDS011;40724;53.196;5.980;2023-12-28T14:04:14;27.45;;;8.10;;
54823;SDS011;40724;53.196;5.980;2023-12-28T14:06:40;24.92;;;6.80;;
54823;SDS011;40724;53.196;5.980;2023-12-28T14:09:06;24.02;;;7.03;;
54823;SDS011;40724;53.196;5.980;2023-12-28T14:11:33;27.70;;;7.55;;
54823;SDS011;40724;53.196;5.980;2023-12-28T14:13:59;14.55;;;6.78;;
54823;SDS011;40724;53.196;5.980;2023-12-28T14:16:25;21.00;;;7.25;;
54823;SDS011;40724;53.196;5.980;2023-12-28T14:18:52;29.38;;;7.32;;
54823;SDS011;40724;53.196;5.980;2023-12-28T14:21:18;25.33;;;7.70;;
54823;SDS011;40724;53.196;5.980;2023-12-28T14:23:45;19.27;;;7.05;;
54823;SDS011;40724;53.196;5.980;2023-12-28T14:26:14;21.00;;;7.40;;
54823;SDS011;40724;53.196;5.980;2023-12-28T14:28:44;24.58;;;7.85;;
54823;SDS011;40724;53.196;5.980;2023-12-28T14:31:10;27.85;;;8.52;;
54823;SDS011;40724;53.196;5.980;2023-12-28T14:33:38;17.02;;;7.20;;
54823;SDS011;40724;53.196;5.980;2023-12-28T14:36:46;31.67;;;8.52;;
54823;SDS011;40724;53.196;5.980;2023-12-28T14:38:54;20.05;;;6.97;;
54823;SDS011;40724;53.196;5.980;2023-12-28T14:41:20;21.98;;;6.63;;
54823;SDS011;40724;53.196;5.980;2023-12-28T14:43:46;23.98;;;6.32;;
54823;SDS011;40724;53.196;5.980;2023-12-28T14:46:12;16.85;;;6.63;;